• Join FlightAware (Why Join?)
  • Login
  • US Flag 
10:29PM EST


 

Airport Tracker/Info


-or-


 

Live Flight TrackerFlight Track Log ✈ BJS542 ✈ 16-Aug-2013 ✈ KIAD - KPBI

Flight Track Log - Related Links

Times and Time Zones

All times are in EDT time to prevent confusion due to time zone crossing. See the BJS542 flight status page for this flight to view local times or setup timezone preferences in your user account.

Time Position Orientation Groundspeed Altitude Reporting Facility
EDT Latitude Longitude Course Direction KTS MPH feet Rate Location/Type
07:00PM 38.8167 -77.4500 189° South 268 308 6,800  Level Potomac TRACON
07:02PM 38.6378 -77.4972 192° South 310 357 14,700 2,640 Climbing Washington Center
07:03PM 38.5372 -77.5267 193° South 346 398 15,600 1,560 Climbing Washington Center
07:04PM 38.4344 -77.5583 194° South 369 425 17,800 2,340 Climbing Washington Center
07:05PM 38.3458 -77.6303 212° Southwest 375 432 20,300 2,460 Climbing Washington Center
07:06PM 38.2586 -77.7203 219° Southwest 388 447 22,900 2,640 Climbing Washington Center
07:07PM 38.1608 -77.8206 219° Southwest 401 461 25,700 2,700 Climbing Washington Center
07:08PM 38.0758 -77.9078 219° Southwest 406 467 28,400 1,620 Climbing Washington Center
07:09PM 37.9928 -78.0000 221° Southwest 406 467 29,000 300 Climbing Washington Center
07:10PM 37.9011 -78.0944 219° Southwest 411 473 29,000 360 Level Washington Center
07:11PM 37.8219 -78.1811 221° Southwest 411 473 29,800 1,260 Climbing Washington Center
07:12PM 37.7389 -78.2678 220° Southwest 411 473 31,600 1,800 Climbing Washington Center
07:13PM 37.6514 -78.3564 219° Southwest 411 473 33,400 1,800 Climbing Washington Center
07:14PM 37.5678 -78.4450 220° Southwest 411 473 35,200 2,160 Climbing Washington Center
07:15PM 37.4758 -78.5386 219° Southwest 406 467 37,900 1,920 Climbing Washington Center
07:16PM 37.3947 -78.6189 218° Southwest 394 453 39,000 540 Climbing Washington Center
07:17PM 37.3089 -78.7069 219° Southwest 394 453 39,000  Level Washington Center
07:18PM 37.2231 -78.7947 219° Southwest 394 453 39,100 660 Climbing Washington Center
07:19PM 37.1375 -78.8772 218° Southwest 394 453 40,400 1,260 Climbing Washington Center
07:20PM 37.0644 -78.9522 219° Southwest 394 453 41,700 1,080 Climbing Washington Center
07:21PM 36.9808 -79.0369 219° Southwest 388 447 42,600 600 Climbing Washington Center
07:22PM 36.9011 -79.1217 220° Southwest 388 447 43,000 180 Climbing Washington Center
07:23PM 36.8150 -79.2058 218° Southwest 388 447 43,000 540 Level Washington Center
07:24PM 36.7225 -79.3028 220° Southwest 394 453 44,100 960 Climbing Washington Center
07:25PM 36.6383 -79.3867 219° Southwest 389 448 44,900 240 Climbing Washington Center
07:27PM 36.4544 -79.5656 218° Southwest 392 451 45,000  Climbing Atlanta Center
07:28PM 36.3697 -79.6503 219° Southwest 402 463 45,000  Level Atlanta Center
07:29PM 36.2772 -79.7428 219° Southwest 412 474 45,000  Level Atlanta Center
07:30PM 36.1906 -79.8297 219° Southwest 412 474 45,000  Level Atlanta Center
07:31PM 36.0897 -79.9303 219° Southwest 417 480 45,000  Level Atlanta Center
07:32PM 35.9897 -80.0019 210° Southwest 417 480 45,000  Level Atlanta Center
07:33PM 35.8806 -80.0433 197° South 417 480 45,000  Level Atlanta Center
07:34PM 35.7608 -80.0797 194° South 423 487 45,000  Level Atlanta Center
07:35PM 35.6494 -80.1183 196° South 429 494 45,000  Level Atlanta Center
07:36PM 35.5339 -80.1572 195° South 429 494 45,000  Level Atlanta Center
07:37PM 35.4181 -80.1958 195° South 429 494 45,000  Level Atlanta Center
07:38PM 35.3147 -80.2261 193° South 434 499 45,000  Level Atlanta Center
07:40PM 35.1008 -80.2944 195° South 439 505 45,000  Level Jacksonville Center
07:41PM 34.9808 -80.3364 196° South 427 491 45,000  Level Jacksonville Center
07:42PM 34.8750 -80.3672 193° South 422 486 45,000  Level Jacksonville Center
07:43PM 34.7694 -80.4031 196° South 422 486 45,000  Level Jacksonville Center
07:44PM 34.6619 -80.4592 203° Southwest 417 480 45,000  Level Jacksonville Center
07:45PM 34.5589 -80.5153 204° Southwest 412 474 45,000  Level Jacksonville Center
07:46PM 34.4533 -80.5683 203° Southwest 412 474 45,000  Level Jacksonville Center
07:47PM 34.3481 -80.6242 204° Southwest 417 480 45,000  Level Jacksonville Center
07:48PM 34.2428 -80.6794 203° Southwest 417 480 45,000  Level Jacksonville Center
07:49PM 34.1350 -80.7350 203° Southwest 417 480 45,000  Level Jacksonville Center
07:50PM 34.0297 -80.7903 204° Southwest 417 480 45,000  Level Jacksonville Center
07:51PM 33.9242 -80.8478 204° Southwest 417 480 45,000  Level Jacksonville Center
07:52PM 33.8186 -80.9003 202° Southwest 417 480 45,000  Level Jacksonville Center
07:53PM 33.7131 -80.9575 204° Southwest 417 480 45,000  Level Jacksonville Center
07:54PM 33.6053 -81.0097 202° Southwest 417 480 45,000  Level Jacksonville Center
07:55PM 33.4997 -81.0669 204° Southwest 417 480 45,000  Level Jacksonville Center
07:56PM 33.3942 -81.1211 203° Southwest 417 480 45,000  Level Jacksonville Center
07:57PM 33.2842 -81.1756 202° Southwest 417 480 45,000  Level Jacksonville Center
07:58PM 33.1786 -81.2322 204° Southwest 417 480 45,000 -60 Level Jacksonville Center
07:59PM 33.0706 -81.2864 203° Southwest 417 480 44,900  Descending Jacksonville Center
08:00PM 32.9628 -81.3403 203° Southwest 417 480 45,000  Climbing Jacksonville Center
08:01PM 32.8569 -81.3939 203° Southwest 417 480 45,000  Level Jacksonville Center
08:02PM 32.7469 -81.4500 203° Southwest 417 480 45,000  Level Jacksonville Center
08:03PM 32.6308 -81.5086 203° Southwest 422 486 45,000  Level Jacksonville Center
08:04PM 32.5333 -81.5594 204° Southwest 415 478 45,000  Level Jacksonville Center
08:05PM 32.4128 -81.6203 203° Southwest 420 483 45,000  Level Jacksonville Center
08:06PM 32.3108 -81.6514 194° South 425 489 45,000  Level Jacksonville Center
08:07PM 32.1794 -81.6850 192° South 437 503 45,000  Level Jacksonville Center
08:08PM 32.0608 -81.7158 192° South 430 495 45,000  Level Jacksonville Center
08:09PM 31.9400 -81.7444 191° South 441 507 45,000 -240 Level Jacksonville Center
08:10PM 31.8256 -81.7750 193° South 435 501 44,600 -720 Descending Jacksonville Center
08:11PM 31.7192 -81.8008 192° South 435 501 43,600 -1,140 Descending Jacksonville Center
08:12PM 31.5900 -81.8342 192° South 429 494 42,400 -1,200 Descending Jacksonville Center
08:13PM 31.4733 -81.8622 192° South 429 494 41,300 -1,080 Descending Jacksonville Center
08:14PM 31.3669 -81.8878 192° South 429 494 40,300 -660 Descending Jacksonville Center
08:15PM 31.2525 -81.9206 194° South 429 494 40,000 -180 Descending Jacksonville Center
08:16PM 31.1358 -81.9508 193° South 429 494 40,000  Level Jacksonville Center
08:17PM 31.0150 -81.9811 192° South 434 499 40,000  Level Jacksonville Center
08:18PM 30.8961 -82.0089 191° South 434 499 40,000  Level Jacksonville Center
08:19PM 30.7753 -82.0414 193° South 440 506 40,000  Level Jacksonville Center
08:20PM 30.6522 -82.0717 192° South 445 512 40,000  Level Jacksonville Center
08:21PM 30.5292 -82.0919 188° South 445 512 40,000  Level Jacksonville Center
08:22PM 30.4061 -82.1242 193° South 445 512 40,000  Level Jacksonville Center
08:23PM 30.2789 -82.1564 192° South 450 518 40,000 -240 Level Jacksonville Center
08:24PM 30.1539 -82.1864 192° South 455 524 39,600 -780 Descending Jacksonville Center
08:25PM 30.0122 -82.2258 194° South 460 529 38,500 -1,080 Descending Jacksonville Center
08:26PM 29.8869 -82.2578 192° South 467 537 37,500 -1,020 Descending Jacksonville Center
08:27PM 29.7597 -82.2897 192° South 467 537 36,500 -960 Descending Jacksonville Center
08:28PM 29.6450 -82.3119 190° South 467 537 35,600 -780 Descending Jacksonville Center
08:29PM 29.5158 -82.3269 186° South 467 537 35,000 -300 Descending Jacksonville Center
08:30PM 29.3822 -82.3253 179° South 472 543 35,000  Level Jacksonville Center
08:31PM 29.2506 -82.3236 179° South 477 549 35,000  Level Jacksonville Center
08:32PM 29.1192 -82.3222 179° South 477 549 35,000  Level Jacksonville Center
08:33PM 28.9875 -82.3181 178° South 477 549 35,000  Level Jacksonville Center
08:34PM 28.8414 -82.3214 181° South 477 549 35,000  Level Jacksonville Center
08:35PM 28.7100 -82.3172 178° South 477 549 35,000  Level Jacksonville Center
08:36PM 28.5764 -82.3158 179° South 477 549 35,000  Level Jacksonville Center
08:37PM 28.4428 -82.3142 179° South 477 549 35,000  Level Jacksonville Center
08:39PM 28.2033 -82.3100 179° South 504 580 35,000  Level Miami Center
08:40PM 28.0575 -82.3075 179° South 488 562 35,000  Level Miami Center
08:41PM 27.9253 -82.2731 167° South 488 562 35,000  Level Miami Center
08:42PM 27.8222 -82.2375 163° South 488 562 35,000 -420 Level Miami Center
08:43PM 27.6678 -82.1858 163° South 479 551 34,200 -1,080 Descending Miami Center
08:44PM 27.5358 -82.1375 162° South 491 565 32,900 -1,620 Descending Miami Center
08:45PM 27.4081 -82.0942 163° South 496 571 31,000 -1,980 Descending Miami Center
08:46PM 27.2969 -82.0564 163° South 474 545 29,000 -1,980 Descending Miami Center
08:47PM 27.1731 -82.0158 164° South 467 537 27,100 -2,100 Descending Miami Center
08:48PM 27.0431 -81.9728 164° South 451 519 24,900 -1,560 Descending Miami Center
08:49PM 26.9297 -81.9353 164° South 445 512 24,000 -900 Descending Miami Center
08:50PM 26.8406 -81.8522 140° Southeast 424 488 23,200 -1,500 Descending Miami Center
08:51PM 26.7581 -81.7606 135° Southeast 411 473 21,000 -2,100 Descending Miami Center
08:52PM 26.6925 -81.6647 127° Southeast 388 447 19,000 -1,020 Descending Miami Center
08:53PM 26.7067 -81.5467 82° East 348 400 19,000  Level Miami Center
08:54PM 26.7378 -81.4294 73° East 357 411 19,000 -540 Level Miami Center
08:55PM 26.7664 -81.3094 75° East 382 440 18,000 -1,500 Descending Miami Center
08:56PM 26.7928 -81.1989 75° East 398 458 16,000 -2,100 Descending Miami Center
08:57PM 26.8169 -81.0858 77° East 387 445 13,900 -2,100 Descending Miami Center
08:58PM 26.8289 -80.9653 84° East 364 419 11,900 -1,800 Descending Miami Center
08:59PM 26.8356 -80.8678 86° East 328 377 10,300 -960 Descending Miami Center
09:00PM 26.8147 -80.7903 107° East 294 338 10,000 -540 Descending Miami Center
09:01PM 26.7778 -80.6958 114° Southeast 286 329 9,300 -960 Descending Miami Center
09:02PM 26.7503 -80.6253 114° Southeast 285 328 8,100 -1,200 Descending Miami Center
09:03PM 26.7172 -80.5336 112° Southeast 278 320 6,900 -1,200 Descending Miami Center
09:04PM 26.6981 -80.4608 106° East 278 320 5,700 -1,740 Descending Miami Center
09:05PM 26.6919 -80.3700 94° East 266 306 3,500 -1,380 Descending Miami Center
09:06PM 26.6894 -80.3025 92° East 252 290 3,000 -540 Descending Miami Center
09:08PM 26.5933 -80.1851 53° Northeast  Level FlightAware Approximate
09:15PM 26.6667 -80.0833 50° Northeast  Level FlightAware Approximate
09:16PM 26.6832 -80.0956 50° Northeast  Level Estimated
09:17PM 26.6832 -80.0956 50° Northeast  Level Estimated
09:18PM 26.6832 -80.0956 50° Northeast  Level Estimated